Knowlton, Canada
Current Conditions -  °F | °C
As of 11:35 AM on Tuesday 21 Oct 2014 (Local Time) from KFSO Reporting Station
Light Rain Light Rain  
Wind Chill: 45°   Ceiling: 4800
Heat Index: 47°   Visibility: 10mi
Dew Point: 45°   Wind: 6mph
Humidity: 93%   Direction: 20°NNE
Pressure: 29.99"   Gusts: NA
Location:  45.22°N, 72.52°W
Report Text: KFSO 211535Z AUTO 02005KT 10SM -RA SCT034 OVC048 09/07 A2999 RMK AO2 T00850074
Loading
Personal Weather Stations






























Interactive Weather Map
Tropical Storm Tracking
New forecast layout! Learn more

10-Day Weather Forecast

Advertisements
Track Severe Weather on mobile